Terminal Aerodrome Forecast
Issued by NWS Cleveland, OH

Home | Current Version | Previous Version | Graphics & Text | Print | Product List | Glossary On
Versions: 1 2 3 4 5 6 7 8 9 10 11 12 13 14 15 16 17 18 19 20
739
FTUS41 KCLE 160212 AAA
TAFMFD
TAF AMD
KMFD 160212Z 1602/1624 25010G18KT P6SM OVC035
      TEMPO 1609/1612 3SM -SHSN OVC025
     FM161200 23012KT P6SM OVC050
     FM162000 23007KT P6SM SCT050=

USA.gov is the U.S. government's official web portal to all federal, state and local government web resources and services.